sensor_id;sensor_type;location;lat;lon;timestamp;P1;durP1;ratioP1;P2;durP2;ratioP2
10667;SDS011;5382;42.136;24.796;2022-08-30T00:01:00;9.45;;;6.28;;
10667;SDS011;5382;42.136;24.796;2022-08-30T00:03:32;11.85;;;6.53;;
10667;SDS011;5382;42.136;24.796;2022-08-30T00:06:00;8.38;;;6.82;;
10667;SDS011;5382;42.136;24.796;2022-08-30T00:08:29;10.40;;;6.85;;
10667;SDS011;5382;42.136;24.796;2022-08-30T00:10:56;11.40;;;7.05;;
10667;SDS011;5382;42.136;24.796;2022-08-30T00:13:23;10.18;;;6.47;;
10667;SDS011;5382;42.136;24.796;2022-08-30T00:15:51;8.40;;;6.25;;
10667;SDS011;5382;42.136;24.796;2022-08-30T00:18:18;11.60;;;7.22;;
10667;SDS011;5382;42.136;24.796;2022-08-30T00:20:48;7.20;;;6.22;;
10667;SDS011;5382;42.136;24.796;2022-08-30T00:23:15;8.43;;;7.03;;
10667;SDS011;5382;42.136;24.796;2022-08-30T00:25:44;9.48;;;6.78;;
10667;SDS011;5382;42.136;24.796;2022-08-30T00:28:11;8.95;;;7.68;;
10667;SDS011;5382;42.136;24.796;2022-08-30T00:30:41;7.40;;;6.00;;
10667;SDS011;5382;42.136;24.796;2022-08-30T00:33:09;8.82;;;6.82;;
10667;SDS011;5382;42.136;24.796;2022-08-30T00:35:37;7.57;;;6.32;;
10667;SDS011;5382;42.136;24.796;2022-08-30T00:38:07;10.10;;;6.22;;
10667;SDS011;5382;42.136;24.796;2022-08-30T00:40:35;7.25;;;5.97;;
10667;SDS011;5382;42.136;24.796;2022-08-30T00:43:03;7.63;;;5.90;;
10667;SDS011;5382;42.136;24.796;2022-08-30T00:45:33;8.60;;;6.13;;
10667;SDS011;5382;42.136;24.796;2022-08-30T00:48:02;9.25;;;6.10;;
10667;SDS011;5382;42.136;24.796;2022-08-30T00:50:32;7.10;;;5.95;;
10667;SDS011;5382;42.136;24.796;2022-08-30T00:53:02;8.95;;;5.70;;
10667;SDS011;5382;42.136;24.796;2022-08-30T00:55:33;8.48;;;6.53;;
10667;SDS011;5382;42.136;24.796;2022-08-30T00:58:02;8.27;;;6.20;;
10667;SDS011;5382;42.136;24.796;2022-08-30T01:00:33;7.28;;;6.47;;
10667;SDS011;5382;42.136;24.796;2022-08-30T01:03:01;9.70;;;6.22;;
10667;SDS011;5382;42.136;24.796;2022-08-30T01:05:28;7.13;;;5.85;;
10667;SDS011;5382;42.136;24.796;2022-08-30T01:07:55;9.40;;;6.30;;
10667;SDS011;5382;42.136;24.796;2022-08-30T01:10:23;8.43;;;6.55;;
10667;SDS011;5382;42.136;24.796;2022-08-30T01:12:52;9.02;;;6.45;;
10667;SDS011;5382;42.136;24.796;2022-08-30T01:15:19;10.95;;;6.68;;
10667;SDS011;5382;42.136;24.796;2022-08-30T01:17:46;10.23;;;6.68;;
10667;SDS011;5382;42.136;24.796;2022-08-30T01:20:14;10.50;;;6.97;;
10667;SDS011;5382;42.136;24.796;2022-08-30T01:22:55;10.38;;;7.35;;
10667;SDS011;5382;42.136;24.796;2022-08-30T01:25:29;9.05;;;7.40;;
10667;SDS011;5382;42.136;24.796;2022-08-30T01:27:57;7.30;;;6.65;;
10667;SDS011;5382;42.136;24.796;2022-08-30T01:30:26;8.85;;;7.22;;
10667;SDS011;5382;42.136;24.796;2022-08-30T01:32:56;10.30;;;6.72;;
10667;SDS011;5382;42.136;24.796;2022-08-30T01:35:24;8.27;;;7.28;;
10667;SDS011;5382;42.136;24.796;2022-08-30T01:37:52;9.18;;;6.78;;
10667;SDS011;5382;42.136;24.796;2022-08-30T01:40:21;7.95;;;6.30;;
10667;SDS011;5382;42.136;24.796;2022-08-30T01:42:48;8.13;;;6.95;;
10667;SDS011;5382;42.136;24.796;2022-08-30T01:45:15;8.13;;;6.60;;
10667;SDS011;5382;42.136;24.796;2022-08-30T01:47:42;9.13;;;6.53;;
10667;SDS011;5382;42.136;24.796;2022-08-30T01:50:09;8.73;;;6.65;;
10667;SDS011;5382;42.136;24.796;2022-08-30T01:52:36;9.57;;;6.70;;
10667;SDS011;5382;42.136;24.796;2022-08-30T01:55:04;12.32;;;7.57;;
10667;SDS011;5382;42.136;24.796;2022-08-30T01:57:33;13.77;;;7.90;;
10667;SDS011;5382;42.136;24.796;2022-08-30T02:00:00;11.30;;;7.18;;
10667;SDS011;5382;42.136;24.796;2022-08-30T02:02:30;8.05;;;7.07;;
10667;SDS011;5382;42.136;24.796;2022-08-30T02:04:57;10.40;;;7.07;;
10667;SDS011;5382;42.136;24.796;2022-08-30T02:07:24;12.20;;;7.38;;
10667;SDS011;5382;42.136;24.796;2022-08-30T02:09:51;9.00;;;7.60;;
10667;SDS011;5382;42.136;24.796;2022-08-30T02:12:19;10.70;;;7.45;;
10667;SDS011;5382;42.136;24.796;2022-08-30T02:14:47;9.15;;;7.50;;
10667;SDS011;5382;42.136;24.796;2022-08-30T02:17:14;10.48;;;7.80;;
10667;SDS011;5382;42.136;24.796;2022-08-30T02:19:43;9.32;;;7.45;;
10667;SDS011;5382;42.136;24.796;2022-08-30T02:22:10;8.50;;;7.32;;
10667;SDS011;5382;42.136;24.796;2022-08-30T02:24:37;12.30;;;7.72;;
10667;SDS011;5382;42.136;24.796;2022-08-30T02:27:05;9.10;;;8.25;;
10667;SDS011;5382;42.136;24.796;2022-08-30T02:29:31;11.45;;;7.80;;
10667;SDS011;5382;42.136;24.796;2022-08-30T02:32:00;11.18;;;7.35;;
10667;SDS011;5382;42.136;24.796;2022-08-30T02:34:27;9.57;;;7.22;;
10667;SDS011;5382;42.136;24.796;2022-08-30T02:36:54;10.05;;;7.20;;
10667;SDS011;5382;42.136;24.796;2022-08-30T02:39:21;10.48;;;7.13;;
10667;SDS011;5382;42.136;24.796;2022-08-30T02:41:49;9.82;;;7.80;;
10667;SDS011;5382;42.136;24.796;2022-08-30T02:44:16;7.63;;;6.82;;
10667;SDS011;5382;42.136;24.796;2022-08-30T02:46:43;7.88;;;6.95;;
10667;SDS011;5382;42.136;24.796;2022-08-30T02:49:12;7.95;;;7.15;;
10667;SDS011;5382;42.136;24.796;2022-08-30T02:51:39;9.68;;;7.57;;
10667;SDS011;5382;42.136;24.796;2022-08-30T02:54:06;9.55;;;7.22;;
10667;SDS011;5382;42.136;24.796;2022-08-30T02:56:33;10.32;;;7.50;;
10667;SDS011;5382;42.136;24.796;2022-08-30T02:59:00;11.45;;;7.32;;
10667;SDS011;5382;42.136;24.796;2022-08-30T03:01:27;9.65;;;7.25;;
10667;SDS011;5382;42.136;24.796;2022-08-30T03:03:54;12.18;;;7.65;;
10667;SDS011;5382;42.136;24.796;2022-08-30T03:06:22;8.45;;;6.95;;
10667;SDS011;5382;42.136;24.796;2022-08-30T03:08:49;9.43;;;7.68;;
10667;SDS011;5382;42.136;24.796;2022-08-30T03:11:16;10.55;;;7.45;;
10667;SDS011;5382;42.136;24.796;2022-08-30T03:13:43;10.07;;;7.30;;
10667;SDS011;5382;42.136;24.796;2022-08-30T03:16:10;9.77;;;7.25;;
10667;SDS011;5382;42.136;24.796;2022-08-30T03:18:37;7.95;;;6.97;;
10667;SDS011;5382;42.136;24.796;2022-08-30T03:21:08;12.60;;;7.88;;
10667;SDS011;5382;42.136;24.796;2022-08-30T03:23:37;8.68;;;7.20;;
10667;SDS011;5382;42.136;24.796;2022-08-30T03:26:05;9.60;;;7.68;;
10667;SDS011;5382;42.136;24.796;2022-08-30T03:28:33;10.55;;;7.40;;
10667;SDS011;5382;42.136;24.796;2022-08-30T03:31:00;10.48;;;8.98;;
10667;SDS011;5382;42.136;24.796;2022-08-30T03:33:27;10.15;;;7.85;;
10667;SDS011;5382;42.136;24.796;2022-08-30T03:35:54;9.75;;;7.25;;
10667;SDS011;5382;42.136;24.796;2022-08-30T03:38:20;9.00;;;7.57;;
10667;SDS011;5382;42.136;24.796;2022-08-30T03:40:49;7.95;;;7.07;;
10667;SDS011;5382;42.136;24.796;2022-08-30T03:43:16;11.50;;;8.05;;
10667;SDS011;5382;42.136;24.796;2022-08-30T03:45:43;9.80;;;7.78;;
10667;SDS011;5382;42.136;24.796;2022-08-30T03:48:10;9.75;;;7.10;;
10667;SDS011;5382;42.136;24.796;2022-08-30T03:50:37;10.32;;;7.65;;
10667;SDS011;5382;42.136;24.796;2022-08-30T03:53:04;10.07;;;7.40;;
10667;SDS011;5382;42.136;24.796;2022-08-30T03:55:31;9.68;;;7.63;;
10667;SDS011;5382;42.136;24.796;2022-08-30T03:57:59;9.07;;;7.57;;
10667;SDS011;5382;42.136;24.796;2022-08-30T04:00:26;8.32;;;7.53;;
10667;SDS011;5382;42.136;24.796;2022-08-30T04:02:53;8.35;;;7.32;;
10667;SDS011;5382;42.136;24.796;2022-08-30T04:05:20;8.57;;;7.07;;
10667;SDS011;5382;42.136;24.796;2022-08-30T04:07:47;13.27;;;7.35;;
10667;SDS011;5382;42.136;24.796;2022-08-30T04:10:14;11.32;;;7.70;;
10667;SDS011;5382;42.136;24.796;2022-08-30T04:12:41;9.85;;;7.70;;
10667;SDS011;5382;42.136;24.796;2022-08-30T04:15:10;12.70;;;7.47;;
10667;SDS011;5382;42.136;24.796;2022-08-30T04:17:37;11.25;;;7.32;;
10667;SDS011;5382;42.136;24.796;2022-08-30T04:20:04;9.15;;;7.32;;
10667;SDS011;5382;42.136;24.796;2022-08-30T04:22:32;9.82;;;7.50;;
10667;SDS011;5382;42.136;24.796;2022-08-30T04:25:00;12.52;;;7.97;;
10667;SDS011;5382;42.136;24.796;2022-08-30T04:27:27;11.05;;;7.72;;
10667;SDS011;5382;42.136;24.796;2022-08-30T04:29:54;11.52;;;7.82;;
10667;SDS011;5382;42.136;24.796;2022-08-30T04:32:23;10.82;;;7.05;;
10667;SDS011;5382;42.136;24.796;2022-08-30T04:34:50;8.68;;;7.32;;
10667;SDS011;5382;42.136;24.796;2022-08-30T04:37:22;11.40;;;7.43;;
10667;SDS011;5382;42.136;24.796;2022-08-30T04:39:48;13.27;;;7.90;;
10667;SDS011;5382;42.136;24.796;2022-08-30T04:42:16;11.88;;;7.78;;
10667;SDS011;5382;42.136;24.796;2022-08-30T04:44:43;12.93;;;7.75;;
10667;SDS011;5382;42.136;24.796;2022-08-30T04:47:10;10.68;;;7.63;;
10667;SDS011;5382;42.136;24.796;2022-08-30T04:49:38;18.10;;;8.02;;
10667;SDS011;5382;42.136;24.796;2022-08-30T04:52:05;14.45;;;7.75;;
10667;SDS011;5382;42.136;24.796;2022-08-30T04:54:34;10.40;;;7.65;;
10667;SDS011;5382;42.136;24.796;2022-08-30T04:57:01;12.98;;;7.95;;
10667;SDS011;5382;42.136;24.796;2022-08-30T04:59:28;12.48;;;8.35;;
10667;SDS011;5382;42.136;24.796;2022-08-30T05:01:55;10.93;;;7.55;;
10667;SDS011;5382;42.136;24.796;2022-08-30T05:04:22;8.68;;;7.78;;
10667;SDS011;5382;42.136;24.796;2022-08-30T05:06:50;9.63;;;8.48;;
10667;SDS011;5382;42.136;24.796;2022-08-30T05:09:17;11.35;;;7.90;;
10667;SDS011;5382;42.136;24.796;2022-08-30T05:11:45;8.82;;;7.50;;
10667;SDS011;5382;42.136;24.796;2022-08-30T05:14:12;12.98;;;8.02;;
10667;SDS011;5382;42.136;24.796;2022-08-30T05:16:40;13.32;;;8.35;;
10667;SDS011;5382;42.136;24.796;2022-08-30T05:19:07;12.60;;;7.97;;
10667;SDS011;5382;42.136;24.796;2022-08-30T05:21:34;11.90;;;7.90;;
10667;SDS011;5382;42.136;24.796;2022-08-30T05:24:02;12.68;;;8.05;;
10667;SDS011;5382;42.136;24.796;2022-08-30T05:26:30;10.55;;;7.70;;
10667;SDS011;5382;42.136;24.796;2022-08-30T05:28:59;11.30;;;8.25;;
10667;SDS011;5382;42.136;24.796;2022-08-30T05:31:28;12.15;;;7.90;;
10667;SDS011;5382;42.136;24.796;2022-08-30T05:33:56;9.05;;;7.30;;
10667;SDS011;5382;42.136;24.796;2022-08-30T05:36:24;11.30;;;7.95;;
10667;SDS011;5382;42.136;24.796;2022-08-30T05:38:53;8.85;;;6.95;;
10667;SDS011;5382;42.136;24.796;2022-08-30T05:41:22;12.57;;;7.28;;
10667;SDS011;5382;42.136;24.796;2022-08-30T05:43:51;8.32;;;6.78;;
10667;SDS011;5382;42.136;24.796;2022-08-30T05:46:18;9.90;;;7.10;;
10667;SDS011;5382;42.136;24.796;2022-08-30T05:48:46;11.25;;;7.50;;
10667;SDS011;5382;42.136;24.796;2022-08-30T05:51:14;7.97;;;7.07;;
10667;SDS011;5382;42.136;24.796;2022-08-30T05:53:43;13.25;;;7.28;;
10667;SDS011;5382;42.136;24.796;2022-08-30T05:56:11;10.27;;;7.65;;
10667;SDS011;5382;42.136;24.796;2022-08-30T05:58:42;10.68;;;7.75;;
10667;SDS011;5382;42.136;24.796;2022-08-30T06:01:17;9.73;;;7.30;;
10667;SDS011;5382;42.136;24.796;2022-08-30T06:03:45;13.18;;;7.43;;
10667;SDS011;5382;42.136;24.796;2022-08-30T06:06:12;10.75;;;6.93;;
10667;SDS011;5382;42.136;24.796;2022-08-30T06:08:40;10.57;;;7.53;;
10667;SDS011;5382;42.136;24.796;2022-08-30T06:11:09;8.93;;;7.32;;
10667;SDS011;5382;42.136;24.796;2022-08-30T06:13:36;10.25;;;7.75;;
10667;SDS011;5382;42.136;24.796;2022-08-30T06:16:05;10.38;;;7.70;;
10667;SDS011;5382;42.136;24.796;2022-08-30T06:18:32;12.32;;;7.55;;
10667;SDS011;5382;42.136;24.796;2022-08-30T06:20:59;9.60;;;7.13;;
10667;SDS011;5382;42.136;24.796;2022-08-30T06:23:26;15.95;;;7.45;;
10667;SDS011;5382;42.136;24.796;2022-08-30T06:25:53;9.40;;;7.30;;
10667;SDS011;5382;42.136;24.796;2022-08-30T06:28:20;13.63;;;8.77;;
10667;SDS011;5382;42.136;24.796;2022-08-30T06:30:47;12.20;;;7.75;;
10667;SDS011;5382;42.136;24.796;2022-08-30T06:33:15;9.40;;;7.10;;
10667;SDS011;5382;42.136;24.796;2022-08-30T06:35:42;11.32;;;7.63;;
10667;SDS011;5382;42.136;24.796;2022-08-30T06:38:09;12.40;;;7.78;;
10667;SDS011;5382;42.136;24.796;2022-08-30T06:40:36;9.63;;;7.80;;
10667;SDS011;5382;42.136;24.796;2022-08-30T06:43:03;10.25;;;7.38;;
10667;SDS011;5382;42.136;24.796;2022-08-30T06:45:31;11.95;;;7.32;;
10667;SDS011;5382;42.136;24.796;2022-08-30T06:47:58;11.30;;;7.80;;
10667;SDS011;5382;42.136;24.796;2022-08-30T06:50:28;13.35;;;7.10;;
10667;SDS011;5382;42.136;24.796;2022-08-30T06:52:56;8.48;;;7.10;;
10667;SDS011;5382;42.136;24.796;2022-08-30T06:55:28;11.00;;;7.32;;
10667;SDS011;5382;42.136;24.796;2022-08-30T06:57:57;9.98;;;7.28;;
10667;SDS011;5382;42.136;24.796;2022-08-30T07:00:24;7.97;;;7.13;;
10667;SDS011;5382;42.136;24.796;2022-08-30T07:02:51;12.38;;;7.35;;
10667;SDS011;5382;42.136;24.796;2022-08-30T07:05:18;9.48;;;7.53;;
10667;SDS011;5382;42.136;24.796;2022-08-30T07:07:48;12.55;;;7.82;;
10667;SDS011;5382;42.136;24.796;2022-08-30T07:10:17;12.82;;;7.93;;
10667;SDS011;5382;42.136;24.796;2022-08-30T07:12:45;10.27;;;7.07;;
10667;SDS011;5382;42.136;24.796;2022-08-30T07:15:12;7.32;;;6.47;;
10667;SDS011;5382;42.136;24.796;2022-08-30T07:17:39;12.15;;;6.60;;
10667;SDS011;5382;42.136;24.796;2022-08-30T07:20:25;9.10;;;6.55;;
10667;SDS011;5382;42.136;24.796;2022-08-30T07:22:53;7.78;;;6.70;;
10667;SDS011;5382;42.136;24.796;2022-08-30T07:25:20;9.48;;;7.00;;
10667;SDS011;5382;42.136;24.796;2022-08-30T07:27:47;17.80;;;7.43;;
10667;SDS011;5382;42.136;24.796;2022-08-30T07:30:16;14.52;;;7.18;;
10667;SDS011;5382;42.136;24.796;2022-08-30T07:32:44;9.77;;;7.60;;
10667;SDS011;5382;42.136;24.796;2022-08-30T07:35:11;10.65;;;6.18;;
10667;SDS011;5382;42.136;24.796;2022-08-30T07:37:37;10.23;;;6.65;;
10667;SDS011;5382;42.136;24.796;2022-08-30T07:40:06;12.00;;;7.28;;
10667;SDS011;5382;42.136;24.796;2022-08-30T07:42:34;12.30;;;6.35;;
10667;SDS011;5382;42.136;24.796;2022-08-30T07:45:01;10.50;;;6.15;;
10667;SDS011;5382;42.136;24.796;2022-08-30T07:47:28;10.98;;;7.45;;
10667;SDS011;5382;42.136;24.796;2022-08-30T07:49:57;9.02;;;6.32;;
10667;SDS011;5382;42.136;24.796;2022-08-30T07:52:24;7.20;;;6.03;;
10667;SDS011;5382;42.136;24.796;2022-08-30T07:54:53;10.15;;;6.43;;
10667;SDS011;5382;42.136;24.796;2022-08-30T07:57:22;10.13;;;6.40;;
10667;SDS011;5382;42.136;24.796;2022-08-30T07:59:49;8.95;;;6.93;;
10667;SDS011;5382;42.136;24.796;2022-08-30T08:02:16;9.23;;;6.43;;
10667;SDS011;5382;42.136;24.796;2022-08-30T08:04:44;7.28;;;6.47;;
10667;SDS011;5382;42.136;24.796;2022-08-30T08:07:12;8.32;;;6.13;;
10667;SDS011;5382;42.136;24.796;2022-08-30T08:09:39;9.65;;;6.47;;
10667;SDS011;5382;42.136;24.796;2022-08-30T08:12:07;12.32;;;7.25;;
10667;SDS011;5382;42.136;24.796;2022-08-30T08:14:35;10.10;;;6.85;;
10667;SDS011;5382;42.136;24.796;2022-08-30T08:17:02;9.48;;;6.82;;
10667;SDS011;5382;42.136;24.796;2022-08-30T08:19:29;8.77;;;6.70;;
10667;SDS011;5382;42.136;24.796;2022-08-30T08:21:56;9.23;;;6.85;;
10667;SDS011;5382;42.136;24.796;2022-08-30T08:24:24;9.88;;;6.72;;
10667;SDS011;5382;42.136;24.796;2022-08-30T08:26:51;11.10;;;6.85;;
10667;SDS011;5382;42.136;24.796;2022-08-30T08:29:19;12.20;;;6.03;;
10667;SDS011;5382;42.136;24.796;2022-08-30T08:31:48;12.50;;;6.32;;
10667;SDS011;5382;42.136;24.796;2022-08-30T08:34:15;11.52;;;6.72;;
10667;SDS011;5382;42.136;24.796;2022-08-30T08:36:43;11.55;;;6.80;;
10667;SDS011;5382;42.136;24.796;2022-08-30T08:39:12;8.60;;;6.40;;
10667;SDS011;5382;42.136;24.796;2022-08-30T08:41:41;15.82;;;6.80;;
10667;SDS011;5382;42.136;24.796;2022-08-30T08:44:24;11.65;;;6.55;;
10667;SDS011;5382;42.136;24.796;2022-08-30T08:47:05;12.95;;;6.75;;
10667;SDS011;5382;42.136;24.796;2022-08-30T08:49:39;10.13;;;6.35;;
10667;SDS011;5382;42.136;24.796;2022-08-30T08:52:09;8.68;;;7.03;;
10667;SDS011;5382;42.136;24.796;2022-08-30T08:55:01;8.98;;;5.95;;
10667;SDS011;5382;42.136;24.796;2022-08-30T08:57:35;12.45;;;6.63;;
10667;SDS011;5382;42.136;24.796;2022-08-30T09:00:03;8.30;;;5.80;;
10667;SDS011;5382;42.136;24.796;2022-08-30T09:02:36;9.93;;;6.82;;
10667;SDS011;5382;42.136;24.796;2022-08-30T09:05:06;8.25;;;6.20;;
10667;SDS011;5382;42.136;24.796;2022-08-30T09:07:39;11.38;;;6.63;;
10667;SDS011;5382;42.136;24.796;2022-08-30T09:10:10;7.03;;;6.15;;
10667;SDS011;5382;42.136;24.796;2022-08-30T09:12:37;9.18;;;6.35;;
10667;SDS011;5382;42.136;24.796;2022-08-30T09:15:06;16.35;;;6.40;;
10667;SDS011;5382;42.136;24.796;2022-08-30T09:17:49;9.60;;;5.70;;
10667;SDS011;5382;42.136;24.796;2022-08-30T09:20:28;9.07;;;5.93;;
10667;SDS011;5382;42.136;24.796;2022-08-30T09:22:57;8.98;;;6.43;;
10667;SDS011;5382;42.136;24.796;2022-08-30T09:25:36;9.02;;;5.60;;
10667;SDS011;5382;42.136;24.796;2022-08-30T09:28:07;10.20;;;6.15;;
10667;SDS011;5382;42.136;24.796;2022-08-30T09:30:36;8.95;;;6.70;;
10667;SDS011;5382;42.136;24.796;2022-08-30T09:33:05;10.00;;;5.93;;
10667;SDS011;5382;42.136;24.796;2022-08-30T09:35:46;7.53;;;5.70;;
10667;SDS011;5382;42.136;24.796;2022-08-30T09:38:16;9.25;;;5.20;;
10667;SDS011;5382;42.136;24.796;2022-08-30T09:40:47;9.95;;;6.03;;
10667;SDS011;5382;42.136;24.796;2022-08-30T09:43:20;7.82;;;6.43;;
10667;SDS011;5382;42.136;24.796;2022-08-30T09:46:03;6.50;;;5.50;;
10667;SDS011;5382;42.136;24.796;2022-08-30T09:48:35;11.15;;;6.28;;
10667;SDS011;5382;42.136;24.796;2022-08-30T09:54:15;9.80;;;5.93;;
10667;SDS011;5382;42.136;24.796;2022-08-30T09:56:51;8.00;;;5.68;;
10667;SDS011;5382;42.136;24.796;2022-08-30T09:59:32;15.07;;;6.22;;
10667;SDS011;5382;42.136;24.796;2022-08-30T10:02:14;11.65;;;6.13;;
10667;SDS011;5382;42.136;24.796;2022-08-30T10:04:57;8.27;;;5.90;;
10667;SDS011;5382;42.136;24.796;2022-08-30T10:07:33;8.77;;;5.60;;
10667;SDS011;5382;42.136;24.796;2022-08-30T10:10:08;9.88;;;5.90;;
10667;SDS011;5382;42.136;24.796;2022-08-30T10:12:38;7.72;;;5.80;;
10667;SDS011;5382;42.136;24.796;2022-08-30T10:15:17;8.95;;;5.53;;
10667;SDS011;5382;42.136;24.796;2022-08-30T10:17:50;8.10;;;5.50;;
10667;SDS011;5382;42.136;24.796;2022-08-30T10:20:25;6.85;;;5.53;;
10667;SDS011;5382;42.136;24.796;2022-08-30T10:23:00;11.48;;;5.93;;
10667;SDS011;5382;42.136;24.796;2022-08-30T10:25:34;10.05;;;5.45;;
10667;SDS011;5382;42.136;24.796;2022-08-30T10:28:06;9.35;;;5.22;;
10667;SDS011;5382;42.136;24.796;2022-08-30T10:30:39;9.73;;;5.30;;
10667;SDS011;5382;42.136;24.796;2022-08-30T10:33:11;9.75;;;5.85;;
10667;SDS011;5382;42.136;24.796;2022-08-30T10:35:44;9.18;;;5.57;;
10667;SDS011;5382;42.136;24.796;2022-08-30T10:38:15;11.15;;;5.32;;
10667;SDS011;5382;42.136;24.796;2022-08-30T10:40:47;8.13;;;5.40;;
10667;SDS011;5382;42.136;24.796;2022-08-30T10:43:40;8.30;;;6.00;;
10667;SDS011;5382;42.136;24.796;2022-08-30T10:46:15;14.60;;;5.90;;
10667;SDS011;5382;42.136;24.796;2022-08-30T10:48:47;6.43;;;5.07;;
10667;SDS011;5382;42.136;24.796;2022-08-30T10:51:18;8.95;;;4.60;;
10667;SDS011;5382;42.136;24.796;2022-08-30T10:53:51;10.57;;;5.05;;
10667;SDS011;5382;42.136;24.796;2022-08-30T10:56:22;6.47;;;5.03;;
10667;SDS011;5382;42.136;24.796;2022-08-30T10:58:53;11.38;;;5.40;;
10667;SDS011;5382;42.136;24.796;2022-08-30T11:04:27;7.57;;;4.57;;
10667;SDS011;5382;42.136;24.796;2022-08-30T11:07:27;8.48;;;5.10;;
10667;SDS011;5382;42.136;24.796;2022-08-30T11:10:09;8.35;;;4.90;;
10667;SDS011;5382;42.136;24.796;2022-08-30T11:12:50;7.80;;;4.90;;
10667;SDS011;5382;42.136;24.796;2022-08-30T11:15:22;7.70;;;5.00;;
10667;SDS011;5382;42.136;24.796;2022-08-30T11:17:54;7.75;;;5.43;;
10667;SDS011;5382;42.136;24.796;2022-08-30T11:20:31;8.15;;;4.65;;
10667;SDS011;5382;42.136;24.796;2022-08-30T11:25:59;9.38;;;4.97;;
10667;SDS011;5382;42.136;24.796;2022-08-30T11:37:29;8.60;;;5.10;;
10667;SDS011;5382;42.136;24.796;2022-08-30T11:40:09;10.55;;;4.50;;
10667;SDS011;5382;42.136;24.796;2022-08-30T11:42:52;10.57;;;4.85;;
10667;SDS011;5382;42.136;24.796;2022-08-30T11:51:20;8.05;;;5.00;;
10667;SDS011;5382;42.136;24.796;2022-08-30T11:54:17;7.97;;;4.95;;
10667;SDS011;5382;42.136;24.796;2022-08-30T11:56:56;11.25;;;4.93;;
10667;SDS011;5382;42.136;24.796;2022-08-30T11:59:32;9.95;;;4.97;;
10667;SDS011;5382;42.136;24.796;2022-08-30T12:02:08;7.70;;;5.22;;
10667;SDS011;5382;42.136;24.796;2022-08-30T12:04:55;6.78;;;4.90;;
10667;SDS011;5382;42.136;24.796;2022-08-30T12:10:20;9.20;;;4.80;;
10667;SDS011;5382;42.136;24.796;2022-08-30T12:12:54;7.30;;;5.40;;
10667;SDS011;5382;42.136;24.796;2022-08-30T12:15:49;8.25;;;5.07;;
10667;SDS011;5382;42.136;24.796;2022-08-30T12:18:23;9.02;;;5.15;;
10667;SDS011;5382;42.136;24.796;2022-08-30T12:20:53;11.23;;;4.88;;
10667;SDS011;5382;42.136;24.796;2022-08-30T12:23:38;8.45;;;4.90;;
10667;SDS011;5382;42.136;24.796;2022-08-30T12:26:11;8.68;;;4.63;;
10667;SDS011;5382;42.136;24.796;2022-08-30T12:28:43;11.45;;;4.85;;
10667;SDS011;5382;42.136;24.796;2022-08-30T12:31:14;9.50;;;5.22;;
10667;SDS011;5382;42.136;24.796;2022-08-30T12:33:46;10.07;;;5.18;;
10667;SDS011;5382;42.136;24.796;2022-08-30T12:36:29;7.25;;;5.00;;
10667;SDS011;5382;42.136;24.796;2022-08-30T12:44:45;12.40;;;4.50;;
10667;SDS011;5382;42.136;24.796;2022-08-30T12:47:15;11.70;;;4.72;;
10667;SDS011;5382;42.136;24.796;2022-08-30T12:49:45;16.10;;;4.88;;
10667;SDS011;5382;42.136;24.796;2022-08-30T12:52:14;15.75;;;4.65;;
10667;SDS011;5382;42.136;24.796;2022-08-30T12:54:42;12.63;;;4.53;;
10667;SDS011;5382;42.136;24.796;2022-08-30T12:57:09;10.18;;;4.90;;
10667;SDS011;5382;42.136;24.796;2022-08-30T12:59:49;12.75;;;4.63;;
10667;SDS011;5382;42.136;24.796;2022-08-30T13:02:18;12.52;;;4.85;;
10667;SDS011;5382;42.136;24.796;2022-08-30T13:04:47;16.40;;;5.15;;
10667;SDS011;5382;42.136;24.796;2022-08-30T13:07:29;8.90;;;4.15;;
10667;SDS011;5382;42.136;24.796;2022-08-30T13:12:58;10.48;;;3.88;;
10667;SDS011;5382;42.136;24.796;2022-08-30T13:15:28;5.20;;;3.80;;
10667;SDS011;5382;42.136;24.796;2022-08-30T13:18:10;11.98;;;4.22;;
10667;SDS011;5382;42.136;24.796;2022-08-30T13:20:43;4.90;;;4.05;;
10667;SDS011;5382;42.136;24.796;2022-08-30T13:23:19;7.82;;;4.30;;
10667;SDS011;5382;42.136;24.796;2022-08-30T13:25:47;9.82;;;4.20;;
10667;SDS011;5382;42.136;24.796;2022-08-30T13:28:14;11.65;;;3.78;;
10667;SDS011;5382;42.136;24.796;2022-08-30T13:30:42;8.10;;;3.95;;
10667;SDS011;5382;42.136;24.796;2022-08-30T13:33:09;7.97;;;4.15;;
10667;SDS011;5382;42.136;24.796;2022-08-30T13:35:36;5.35;;;3.65;;
10667;SDS011;5382;42.136;24.796;2022-08-30T13:38:03;7.65;;;3.85;;
10667;SDS011;5382;42.136;24.796;2022-08-30T13:40:30;9.63;;;4.00;;
10667;SDS011;5382;42.136;24.796;2022-08-30T13:42:57;5.45;;;3.60;;
10667;SDS011;5382;42.136;24.796;2022-08-30T13:45:24;8.45;;;4.13;;
10667;SDS011;5382;42.136;24.796;2022-08-30T13:47:53;5.45;;;3.95;;
10667;SDS011;5382;42.136;24.796;2022-08-30T13:50:20;7.50;;;4.38;;
10667;SDS011;5382;42.136;24.796;2022-08-30T13:52:47;6.50;;;4.05;;
10667;SDS011;5382;42.136;24.796;2022-08-30T13:55:14;5.50;;;3.95;;
10667;SDS011;5382;42.136;24.796;2022-08-30T13:57:41;8.68;;;4.00;;
10667;SDS011;5382;42.136;24.796;2022-08-30T14:00:10;12.27;;;5.63;;
10667;SDS011;5382;42.136;24.796;2022-08-30T14:02:41;7.03;;;4.10;;
10667;SDS011;5382;42.136;24.796;2022-08-30T14:05:10;6.53;;;4.45;;
10667;SDS011;5382;42.136;24.796;2022-08-30T14:07:37;7.40;;;4.95;;
10667;SDS011;5382;42.136;24.796;2022-08-30T14:10:04;4.88;;;3.85;;
10667;SDS011;5382;42.136;24.796;2022-08-30T14:12:32;8.52;;;4.80;;
10667;SDS011;5382;42.136;24.796;2022-08-30T14:14:59;8.00;;;4.47;;
10667;SDS011;5382;42.136;24.796;2022-08-30T14:17:27;8.68;;;5.03;;
10667;SDS011;5382;42.136;24.796;2022-08-30T14:19:55;7.82;;;4.93;;
10667;SDS011;5382;42.136;24.796;2022-08-30T14:22:23;8.05;;;4.72;;
10667;SDS011;5382;42.136;24.796;2022-08-30T14:24:50;7.57;;;4.68;;
10667;SDS011;5382;42.136;24.796;2022-08-30T14:27:19;7.22;;;4.80;;
10667;SDS011;5382;42.136;24.796;2022-08-30T14:29:47;7.22;;;4.50;;
10667;SDS011;5382;42.136;24.796;2022-08-30T14:32:15;7.90;;;4.57;;
10667;SDS011;5382;42.136;24.796;2022-08-30T14:34:41;8.82;;;4.70;;
10667;SDS011;5382;42.136;24.796;2022-08-30T14:37:08;7.55;;;4.50;;
10667;SDS011;5382;42.136;24.796;2022-08-30T14:39:37;6.05;;;4.55;;
10667;SDS011;5382;42.136;24.796;2022-08-30T14:42:04;10.38;;;4.70;;
10667;SDS011;5382;42.136;24.796;2022-08-30T14:44:31;5.78;;;4.40;;
10667;SDS011;5382;42.136;24.796;2022-08-30T14:46:58;9.20;;;4.47;;
10667;SDS011;5382;42.136;24.796;2022-08-30T14:49:25;10.38;;;6.57;;
10667;SDS011;5382;42.136;24.796;2022-08-30T14:51:53;8.60;;;4.88;;
10667;SDS011;5382;42.136;24.796;2022-08-30T14:54:22;8.43;;;5.28;;
10667;SDS011;5382;42.136;24.796;2022-08-30T14:56:52;7.28;;;4.68;;
10667;SDS011;5382;42.136;24.796;2022-08-30T14:59:20;5.88;;;4.20;;
10667;SDS011;5382;42.136;24.796;2022-08-30T15:01:47;5.93;;;4.43;;
10667;SDS011;5382;42.136;24.796;2022-08-30T15:04:14;7.28;;;4.95;;
10667;SDS011;5382;42.136;24.796;2022-08-30T15:06:42;7.68;;;4.30;;
10667;SDS011;5382;42.136;24.796;2022-08-30T15:09:13;7.03;;;4.75;;
10667;SDS011;5382;42.136;24.796;2022-08-30T15:11:42;8.60;;;4.20;;
10667;SDS011;5382;42.136;24.796;2022-08-30T15:14:11;7.15;;;4.57;;
10667;SDS011;5382;42.136;24.796;2022-08-30T15:16:38;6.15;;;3.90;;
10667;SDS011;5382;42.136;24.796;2022-08-30T15:19:06;4.03;;;3.20;;
10667;SDS011;5382;42.136;24.796;2022-08-30T15:21:35;6.53;;;3.90;;
10667;SDS011;5382;42.136;24.796;2022-08-30T15:24:05;6.55;;;4.03;;
10667;SDS011;5382;42.136;24.796;2022-08-30T15:26:33;5.78;;;4.20;;
10667;SDS011;5382;42.136;24.796;2022-08-30T15:29:00;8.30;;;4.13;;
10667;SDS011;5382;42.136;24.796;2022-08-30T15:31:29;7.45;;;4.00;;
10667;SDS011;5382;42.136;24.796;2022-08-30T15:33:56;8.57;;;4.80;;